Time;durP1;ratioP1;P1;durP2;ratioP2;P2;SDS_P1;SDS_P2;PMS_P1;PMS_P2;Temp;Humidity;BMP_temperature;BMP_pressure;BME280_temperature;BME280_humidity;BME280_pressure;Samples;Min_cycle;Max_cycle;Signal;HPM_P1;HPM_P2
2023/06/13 00:00:52;;;;;;;0.10;0.10;;;24.10;65.70;;;;;;5054713;28;20029;-78
2023/06/13 00:03:19;;;;;;;0.05;0.05;;;24.00;66.10;;;;;;5055852;28;20025;-78
2023/06/13 00:05:46;;;;;;;0.10;0.10;;;24.10;66.20;;;;;;5055739;28;20020;-78
2023/06/13 00:08:19;;;;;;;0.10;0.10;;;24.00;66.40;;;;;;5055905;28;20107;-78
2023/06/13 00:10:46;;;;;;;0.15;0.15;;;24.00;66.10;;;;;;5056002;28;20354;-78
2023/06/13 00:13:13;;;;;;;0.22;0.22;;;24.10;65.70;;;;;;5055891;28;20041;-79
2023/06/13 00:15:48;;;;;;;3.92;0.95;;;24.00;65.60;;;;;;5054587;28;20496;-78
2023/06/13 00:18:15;;;;;;;0.10;0.10;;;23.80;65.90;;;;;;5055376;28;20226;-78
2023/06/13 00:20:41;;;;;;;0.10;0.10;;;24.00;65.80;;;;;;5055709;28;20025;-78
2023/06/13 00:23:08;;;;;;;0.10;0.10;;;23.80;65.80;;;;;;5055552;28;20393;-77
2023/06/13 00:25:35;;;;;;;0.28;0.22;;;23.80;65.90;;;;;;5046233;28;20043;-78
2023/06/13 00:28:01;;;;;;;0.20;0.20;;;24.00;65.70;;;;;;5055206;28;20025;-78
2023/06/13 00:30:27;;;;;;;0.10;0.10;;;24.00;65.40;;;;;;5055392;28;20028;-78
2023/06/13 00:32:54;;;;;;;0.52;0.20;;;24.00;65.70;;;;;;5053814;28;20033;-78
2023/06/13 00:35:22;;;;;;;1.90;1.00;;;24.10;65.00;;;;;;5055521;28;20036;-78
2023/06/13 00:37:54;;;;;;;0.57;0.57;;;24.00;65.20;;;;;;5055089;28;20021;-78
2023/06/13 00:40:24;;;;;;;0.57;0.57;;;24.00;64.50;;;;;;5055373;28;20021;-78
2023/06/13 00:42:53;;;;;;;6.22;0.63;;;24.00;64.60;;;;;;5054882;28;20036;-77
2023/06/13 00:45:23;;;;;;;0.10;0.10;;;23.80;64.80;;;;;;5053788;28;20064;-77
2023/06/13 00:47:55;;;;;;;0.75;0.75;;;23.50;65.60;;;;;;5055159;28;20036;-77
2023/06/13 00:50:32;;;;;;;1.25;1.15;;;23.50;65.80;;;;;;5037456;28;20378;-77
2023/06/13 00:53:03;;;;;;;0.40;0.40;;;23.40;65.60;;;;;;5053766;28;20039;-78
2023/06/13 00:55:29;;;;;;;0.20;0.20;;;23.30;65.80;;;;;;5054999;28;20032;-77
2023/06/13 00:57:56;;;;;;;0.50;0.50;;;23.30;65.80;;;;;;5053693;28;20021;-78
2023/06/13 01:00:25;;;;;;;0.20;0.20;;;23.10;66.80;;;;;;5053694;28;20033;-78
2023/06/13 01:02:55;;;;;;;0.10;0.10;;;22.90;67.10;;;;;;5054710;28;20055;-78
2023/06/13 01:05:25;;;;;;;0.28;0.28;;;23.10;67.00;;;;;;5054848;28;20079;-77
2023/06/13 01:07:52;;;;;;;0.85;0.85;;;23.20;66.70;;;;;;5053325;28;20424;-78
2023/06/13 01:10:19;;;;;;;0.40;0.40;;;23.10;66.80;;;;;;5053608;28;21116;-78
2023/06/13 01:13:07;;;;;;;0.20;0.20;;;23.00;67.30;;;;;;5053171;28;20029;-77
2023/06/13 01:15:38;;;;;;;7.00;1.35;;;22.90;67.30;;;;;;5089124;28;20086;-78
2023/06/13 01:18:08;;;;;;;8.40;1.77;;;22.80;67.50;;;;;;5072959;28;20032;-78
2023/06/13 01:20:36;;;;;;;0.20;0.20;;;22.60;67.60;;;;;;5074727;28;20028;-77
2023/06/13 01:23:36;;;;;;;0.20;0.20;;;22.70;67.90;;;;;;5073190;28;20016;-78
2023/06/13 01:26:38;;;;;;;0.85;0.85;;;22.60;68.00;;;;;;5051905;28;20066;-77
2023/06/13 01:29:05;;;;;;;0.70;0.70;;;22.60;68.00;;;;;;5045312;28;20044;-78
2023/06/13 01:31:32;;;;;;;1.13;1.08;;;22.70;67.70;;;;;;5056504;28;20078;-77
2023/06/13 01:33:59;;;;;;;0.93;0.88;;;22.70;68.00;;;;;;5072666;28;20029;-78
2023/06/13 01:36:26;;;;;;;0.70;0.35;;;22.40;68.10;;;;;;5073078;28;20016;-78
2023/06/13 01:38:53;;;;;;;0.28;0.28;;;22.40;68.50;;;;;;5072740;28;20078;-76
2023/06/13 01:41:18;;;;;;;1.02;0.75;;;22.40;68.60;;;;;;5073064;28;20373;-78
2023/06/13 01:43:44;;;;;;;0.10;0.10;;;22.30;68.50;;;;;;5073676;28;20055;-78
2023/06/13 01:46:23;;;;;;;0.20;0.20;;;22.30;68.70;;;;;;5072541;28;20033;-77
2023/06/13 01:49:16;;;;;;;0.75;0.52;;;22.40;68.70;;;;;;5071987;28;20027;-77
2023/06/13 01:51:59;;;;;;;1.17;0.65;;;22.30;68.70;;;;;;5072856;28;20021;-77
2023/06/13 01:54:26;;;;;;;;;;;22.20;69.00;;;;;;5072904;28;20020;-78
2023/06/13 01:56:56;;;;;;;0.13;0.13;;;22.20;69.40;;;;;;5072674;28;19912;-77
2023/06/13 01:59:25;;;;;;;0.20;0.20;;;22.40;69.20;;;;;;5072002;28;20373;-77
2023/06/13 02:01:53;;;;;;;0.55;0.55;;;22.20;68.70;;;;;;5072616;28;20457;-77
2023/06/13 02:04:19;;;;;;;0.65;0.22;;;22.20;69.10;;;;;;5073836;28;20025;-77
2023/06/13 02:06:45;;;;;;;0.43;0.43;;;22.30;69.10;;;;;;5072279;28;20380;-78
2023/06/13 02:09:12;;;;;;;0.52;0.52;;;22.50;68.60;;;;;;5072137;28;20075;-78
2023/06/13 02:11:38;;;;;;;0.30;0.30;;;22.40;68.50;;;;;;5072312;28;20484;-78
2023/06/13 02:14:06;;;;;;;0.10;0.10;;;22.40;68.80;;;;;;5073203;28;20489;-78
2023/06/13 02:16:32;;;;;;;0.77;0.77;;;22.30;68.90;;;;;;5072151;28;20433;-78
2023/06/13 02:19:01;;;;;;;0.10;0.10;;;22.20;68.80;;;;;;5073134;28;20401;-78
2023/06/13 02:21:29;;;;;;;0.10;0.10;;;22.10;69.20;;;;;;5055322;28;20021;-77
2023/06/13 02:23:55;;;;;;;0.03;0.03;;;22.20;69.50;;;;;;5072133;28;20028;-76
2023/06/13 02:26:23;;;;;;;0.90;0.75;;;22.20;69.10;;;;;;5072194;28;20059;-77
2023/06/13 02:28:49;;;;;;;0.40;0.40;;;22.10;69.90;;;;;;5071826;28;20074;-78
2023/06/13 02:31:16;;;;;;;0.10;0.10;;;22.20;69.30;;;;;;5071596;28;20370;-77
2023/06/13 02:33:43;;;;;;;0.40;0.40;;;22.20;69.20;;;;;;5073085;28;20381;-77
2023/06/13 02:36:11;;;;;;;0.00;0.00;;;22.10;70.00;;;;;;5071845;28;20121;-77
2023/06/13 02:38:41;;;;;;;0.10;0.10;;;22.20;69.30;;;;;;5071812;28;20028;-77
2023/06/13 02:41:07;;;;;;;0.00;0.00;;;22.20;69.40;;;;;;5072852;28;20029;-77
2023/06/13 02:43:35;;;;;;;0.10;0.10;;;22.10;69.70;;;;;;5072618;28;20037;-78
2023/06/13 02:46:01;;;;;;;0.32;0.32;;;22.10;70.30;;;;;;5055047;28;20386;-77
2023/06/13 02:48:27;;;;;;;0.10;0.10;;;22.00;70.70;;;;;;5071685;28;20025;-78
2023/06/13 02:50:53;;;;;;;0.10;0.10;;;22.10;70.70;;;;;;5071580;28;20115;-78
2023/06/13 02:53:20;;;;;;;0.22;0.22;;;22.00;70.40;;;;;;5055213;28;20469;-77
2023/06/13 02:55:46;;;;;;;0.10;0.10;;;21.80;70.90;;;;;;5071297;28;20423;-76
2023/06/13 02:58:13;;;;;;;0.20;0.20;;;21.80;71.10;;;;;;5071151;28;20111;-78
2023/06/13 03:00:40;;;;;;;0.32;0.32;;;21.80;71.40;;;;;;5070619;28;20025;-77
2023/06/13 03:03:11;;;;;;;0.10;0.10;;;21.80;71.40;;;;;;5055249;28;20472;-78
2023/06/13 03:05:37;;;;;;;0.20;0.20;;;21.60;71.90;;;;;;5063074;28;20036;-78
2023/06/13 03:08:04;;;;;;;0.00;0.00;;;21.50;72.30;;;;;;5071479;28;20028;-78
2023/06/13 03:10:32;;;;;;;0.10;0.10;;;21.50;72.60;;;;;;5072409;28;20453;-78
2023/06/13 03:12:59;;;;;;;0.20;0.20;;;21.40;72.80;;;;;;5071428;28;20032;-78
2023/06/13 03:15:24;;;;;;;0.10;0.10;;;21.40;72.60;;;;;;5072676;28;20025;-77
2023/06/13 03:17:51;;;;;;;0.38;0.38;;;21.30;72.90;;;;;;5071244;28;20017;-78
2023/06/13 03:20:20;;;;;;;0.32;0.32;;;21.30;72.80;;;;;;5054590;28;20070;-77
2023/06/13 03:22:47;;;;;;;0.40;0.40;;;21.20;72.90;;;;;;5071546;28;20035;-78
2023/06/13 03:25:13;;;;;;;0.10;0.10;;;21.30;73.10;;;;;;5070963;28;20446;-77
2023/06/13 03:27:45;;;;;;;0.20;0.20;;;21.30;72.60;;;;;;5071220;28;20037;-77
2023/06/13 03:30:12;;;;;;;0.75;0.75;;;21.30;73.00;;;;;;5070690;28;20028;-78
2023/06/13 03:32:39;;;;;;;0.43;0.43;;;21.40;72.60;;;;;;5070498;28;20029;-78
2023/06/13 03:35:06;;;;;;;0.10;0.10;;;21.40;72.30;;;;;;5054133;28;20025;-78
2023/06/13 03:37:32;;;;;;;0.15;0.15;;;21.50;72.00;;;;;;5054277;28;20174;-79
2023/06/13 03:39:58;;;;;;;0.10;0.10;;;21.70;71.50;;;;;;5070808;28;20485;-77
2023/06/13 03:42:24;;;;;;;0.45;0.30;;;21.60;71.50;;;;;;5070827;28;20042;-78
2023/06/13 03:44:50;;;;;;;0.08;0.08;;;21.60;71.80;;;;;;5071244;28;20033;-78
2023/06/13 03:47:16;;;;;;;0.10;0.10;;;21.60;72.10;;;;;;5053925;28;20029;-78
2023/06/13 03:49:43;;;;;;;0.20;0.20;;;21.50;72.40;;;;;;5054584;28;20031;-78
2023/06/13 03:52:10;;;;;;;0.32;0.32;;;21.20;72.90;;;;;;5072185;28;20388;-79
2023/06/13 03:54:36;;;;;;;0.13;0.13;;;20.90;73.50;;;;;;5070604;28;20029;-79
2023/06/13 03:57:02;;;;;;;0.10;0.10;;;20.70;74.10;;;;;;5070684;28;20028;-78
2023/06/13 03:59:28;;;;;;;0.10;0.10;;;20.80;75.00;;;;;;5071031;28;20016;-78
2023/06/13 04:01:54;;;;;;;0.10;0.10;;;20.70;74.90;;;;;;5054303;28;20365;-79
2023/06/13 04:04:20;;;;;;;12.73;0.70;;;20.80;74.90;;;;;;5070744;28;20043;-78
2023/06/13 04:06:49;;;;;;;0.57;0.57;;;20.90;74.70;;;;;;5070643;28;20063;-78
2023/06/13 04:09:16;;;;;;;0.50;0.50;;;21.00;74.40;;;;;;5070433;28;20016;-78
2023/06/13 04:11:42;;;;;;;1.27;1.17;;;21.00;74.10;;;;;;5073825;28;20369;-78
2023/06/13 04:14:08;;;;;;;0.50;0.50;;;20.70;74.70;;;;;;5074393;28;20028;-79
2023/06/13 04:16:34;;;;;;;0.00;0.00;;;20.80;74.90;;;;;;5074362;28;20036;-79
2023/06/13 04:19:01;;;;;;;0.10;0.10;;;20.70;75.70;;;;;;5075687;28;20021;-77
2023/06/13 04:21:28;;;;;;;0.17;0.17;;;20.80;75.80;;;;;;5074062;28;20028;-79
2023/06/13 04:23:54;;;;;;;0.65;0.65;;;20.70;75.20;;;;;;5074229;28;20024;-79
2023/06/13 04:26:20;;;;;;;0.10;0.10;;;20.80;75.40;;;;;;5074505;28;20050;-78
2023/06/13 04:28:47;;;;;;;0.10;0.10;;;20.80;75.40;;;;;;5074215;28;20028;-79
2023/06/13 04:31:14;;;;;;;0.20;0.20;;;20.90;75.00;;;;;;5075414;28;20027;-78
2023/06/13 04:33:41;;;;;;;0.20;0.20;;;20.60;75.10;;;;;;5074092;28;20112;-79
2023/06/13 04:36:08;;;;;;;0.38;0.38;;;20.70;74.70;;;;;;5074218;28;20029;-78
2023/06/13 04:38:39;;;;;;;2.75;1.20;;;20.50;74.70;;;;;;5075035;28;20060;-78
2023/06/13 04:41:09;;;;;;;0.30;0.30;;;20.70;74.50;;;;;;5075299;28;20032;-77
2023/06/13 04:43:38;;;;;;;0.10;0.10;;;20.80;74.30;;;;;;5074978;28;20025;-77
2023/06/13 04:46:04;;;;;;;0.10;0.10;;;21.00;73.90;;;;;;5075418;28;20082;-78
2023/06/13 04:48:31;;;;;;;0.52;0.45;;;21.10;73.90;;;;;;5075183;28;20495;-80
2023/06/13 04:50:58;;;;;;;0.93;0.93;;;21.40;75.30;;;;;;5062819;28;20029;-79
2023/06/13 04:53:26;;;;;;;0.57;0.32;;;21.60;74.50;;;;;;5058330;28;20043;-79
2023/06/13 04:55:52;;;;;;;0.20;0.20;;;21.50;74.10;;;;;;5053156;28;20036;-79
2023/06/13 04:58:18;;;;;;;0.20;0.20;;;21.70;73.50;;;;;;5037920;28;20028;-79
2023/06/13 05:00:48;;;;;;;0.00;0.00;;;21.70;72.50;;;;;;5053963;28;20040;-79
2023/06/13 05:03:18;;;;;;;0.10;0.10;;;21.90;72.80;;;;;;5053928;28;20116;-79
2023/06/13 05:05:44;;;;;;;0.00;0.00;;;22.20;71.50;;;;;;5053436;28;20050;-79
2023/06/13 05:08:13;;;;;;;0.95;0.95;;;22.30;71.40;;;;;;5053843;28;20025;-79
2023/06/13 05:10:41;;;;;;;0.40;0.40;;;22.20;71.70;;;;;;5052672;28;20040;-79
2023/06/13 05:13:07;;;;;;;0.88;0.45;;;22.20;71.40;;;;;;5052232;28;20040;-78
2023/06/13 05:15:33;;;;;;;0.10;0.10;;;22.30;70.80;;;;;;5054085;28;20115;-79
2023/06/13 05:17:59;;;;;;;1.75;0.35;;;22.50;70.10;;;;;;5053213;28;20486;-79
2023/06/13 05:20:26;;;;;;;0.75;0.75;;;22.70;69.90;;;;;;5054217;28;20033;-79
2023/06/13 05:22:53;;;;;;;0.10;0.10;;;22.60;70.00;;;;;;5054452;28;20036;-78
2023/06/13 05:25:20;;;;;;;0.30;0.30;;;22.00;71.60;;;;;;5057451;28;20029;-79
2023/06/13 05:27:46;;;;;;;1.25;0.57;;;22.00;71.30;;;;;;5058239;28;20037;-79
2023/06/13 05:30:12;;;;;;;0.28;0.28;;;22.30;70.90;;;;;;5069123;28;20103;-77
2023/06/13 05:32:38;;;;;;;0.20;0.20;;;22.50;69.50;;;;;;5064055;28;20116;-78
2023/06/13 05:35:07;;;;;;;0.55;0.55;;;22.50;69.20;;;;;;5058051;28;20056;-77
2023/06/13 05:37:36;;;;;;;0.10;0.10;;;22.60;69.30;;;;;;5064107;28;20016;-77
2023/06/13 05:40:02;;;;;;;0.10;0.10;;;22.80;69.30;;;;;;5062995;28;20086;-78
2023/06/13 05:42:28;;;;;;;0.65;0.50;;;22.80;69.20;;;;;;5070462;28;20025;-75
2023/06/13 05:44:53;;;;;;;0.52;0.52;;;23.10;68.10;;;;;;5061457;28;20584;-76
2023/06/13 05:47:19;;;;;;;0.10;0.10;;;23.00;68.90;;;;;;5061360;28;20036;-75
2023/06/13 05:49:45;;;;;;;4.03;0.55;;;22.90;69.00;;;;;;5059677;28;20084;-78
2023/06/13 05:52:11;;;;;;;0.40;0.40;;;23.00;68.90;;;;;;5050130;28;20519;-79
2023/06/13 05:54:36;;;;;;;2.55;2.22;;;23.20;68.90;;;;;;5052825;28;20025;-78
2023/06/13 05:57:02;;;;;;;0.13;0.13;;;23.30;68.60;;;;;;5052578;28;20066;-74
2023/06/13 05:59:28;;;;;;;0.32;0.32;;;23.50;68.60;;;;;;5052258;28;20043;-78
2023/06/13 06:01:54;;;;;;;0.35;0.35;;;23.60;68.00;;;;;;5052743;28;20013;-77
2023/06/13 06:04:20;;;;;;;2.13;1.38;;;23.60;68.30;;;;;;5052530;28;20025;-78
2023/06/13 06:06:46;;;;;;;3.83;0.88;;;23.60;68.60;;;;;;5052323;28;20167;-78
2023/06/13 06:09:11;;;;;;;0.65;0.65;;;23.60;67.40;;;;;;5051116;28;20025;-78
2023/06/13 06:11:37;;;;;;;0.10;0.10;;;23.70;66.30;;;;;;5052930;28;20465;-75
2023/06/13 06:14:03;;;;;;;0.30;0.30;;;23.80;66.50;;;;;;5052211;28;20390;-77
2023/06/13 06:16:29;;;;;;;1.10;1.02;;;23.80;66.60;;;;;;5050152;28;20037;-78
2023/06/13 06:18:55;;;;;;;1.58;1.48;;;23.80;65.90;;;;;;5052203;28;20697;-74
2023/06/13 06:21:21;;;;;;;0.30;0.30;;;23.50;66.20;;;;;;5052876;28;20112;-74
2023/06/13 06:23:46;;;;;;;0.28;0.28;;;23.60;66.50;;;;;;5057678;28;20017;-78
2023/06/13 06:26:12;;;;;;;1.45;0.30;;;23.60;66.20;;;;;;5059048;28;20048;-77
2023/06/13 06:28:38;;;;;;;1.67;1.02;;;23.70;66.20;;;;;;5055515;28;20021;-76
2023/06/13 06:31:05;;;;;;;0.45;0.32;;;23.80;66.30;;;;;;5054708;28;20032;-75
2023/06/13 06:33:31;;;;;;;0.20;0.20;;;23.70;66.30;;;;;;5054702;28;20055;-76
2023/06/13 06:35:57;;;;;;;0.20;0.20;;;23.70;66.60;;;;;;5057735;28;20033;-76
2023/06/13 06:38:23;;;;;;;0.80;0.70;;;23.90;66.80;;;;;;5060882;28;20610;-76
2023/06/13 06:40:49;;;;;;;3.33;2.45;;;24.10;66.20;;;;;;5068128;28;20047;-75
2023/06/13 06:43:15;;;;;;;1.52;1.17;;;24.20;65.50;;;;;;5060041;28;20111;-76
2023/06/13 06:45:41;;;;;;;1.45;1.23;;;24.20;65.50;;;;;;5056319;28;20021;-78
2023/06/13 06:48:07;;;;;;;2.55;1.45;;;24.40;66.30;;;;;;5058054;28;20024;-76
2023/06/13 06:50:33;;;;;;;0.65;0.47;;;24.50;66.10;;;;;;5063733;28;20101;-77
2023/06/13 06:52:58;;;;;;;0.50;0.50;;;24.50;65.20;;;;;;5069064;28;20032;-75
2023/06/13 06:55:24;;;;;;;0.35;0.35;;;24.50;64.20;;;;;;5071343;28;20020;-75
2023/06/13 06:57:53;;;;;;;1.27;0.82;;;24.40;65.40;;;;;;5056845;28;20037;-75
2023/06/13 07:00:21;;;;;;;2.08;0.63;;;24.30;65.70;;;;;;5058939;28;20036;-78
2023/06/13 07:02:47;;;;;;;0.35;0.35;;;24.20;65.30;;;;;;5048424;28;20028;-76
2023/06/13 07:05:15;;;;;;;0.40;0.40;;;24.00;65.40;;;;;;5065068;28;20385;-78
2023/06/13 07:07:42;;;;;;;0.10;0.10;;;23.80;65.50;;;;;;5053045;28;20043;-78
2023/06/13 07:10:08;;;;;;;0.10;0.10;;;24.00;66.10;;;;;;5056967;28;20033;-77
2023/06/13 07:12:34;;;;;;;0.52;0.43;;;24.30;66.50;;;;;;5061847;28;20025;-75
2023/06/13 07:15:00;;;;;;;1.52;1.48;;;24.60;65.80;;;;;;5067916;28;20040;-75
2023/06/13 07:17:26;;;;;;;0.00;0.00;;;24.70;65.10;;;;;;5070219;28;20365;-75
2023/06/13 07:19:52;;;;;;;0.20;0.20;;;24.90;64.80;;;;;;5055251;28;20040;-76
2023/06/13 07:22:18;;;;;;;0.10;0.10;;;24.90;65.00;;;;;;5055898;28;20033;-76
2023/06/13 07:24:43;;;;;;;0.10;0.10;;;24.90;65.50;;;;;;5055461;28;20055;-76
2023/06/13 07:27:10;;;;;;;0.22;0.22;;;25.00;65.90;;;;;;5063192;28;20071;-75
2023/06/13 07:29:36;;;;;;;0.00;0.00;;;25.20;64.90;;;;;;5066251;28;20078;-75
2023/06/13 07:32:02;;;;;;;0.10;0.10;;;25.40;65.00;;;;;;5065841;28;20424;-76
2023/06/13 07:34:28;;;;;;;0.28;0.28;;;25.50;64.50;;;;;;5054328;28;20033;-75
2023/06/13 07:36:54;;;;;;;0.32;0.32;;;25.60;64.20;;;;;;5059231;28;20085;-75
2023/06/13 07:39:20;;;;;;;1.50;0.57;;;25.60;65.10;;;;;;5065386;28;20024;-75
2023/06/13 07:41:48;;;;;;;0.20;0.20;;;25.60;64.10;;;;;;5066142;28;20029;-75
2023/06/13 07:44:14;;;;;;;2.20;1.45;;;25.60;64.10;;;;;;5072212;28;20440;-76
2023/06/13 07:46:40;;;;;;;0.95;0.57;;;25.30;63.50;;;;;;5073612;28;20075;-75
2023/06/13 07:49:06;;;;;;;0.20;0.20;;;25.50;64.50;;;;;;5076038;28;20029;-77
2023/06/13 07:51:32;;;;;;;0.10;0.10;;;25.60;63.50;;;;;;5046887;28;20024;-75
2023/06/13 07:53:58;;;;;;;0.15;0.15;;;25.70;64.40;;;;;;5055469;28;20105;-76
2023/06/13 07:56:24;;;;;;;0.20;0.20;;;25.90;64.10;;;;;;5053910;28;20021;-75
2023/06/13 07:58:50;;;;;;;0.17;0.17;;;25.90;63.70;;;;;;5053738;28;20371;-75
2023/06/13 08:01:16;;;;;;;0.10;0.10;;;25.90;63.60;;;;;;5054244;28;20104;-76
2023/06/13 08:03:44;;;;;;;1.05;0.95;;;26.00;63.30;;;;;;5053404;28;20346;-76
2023/06/13 08:06:09;;;;;;;0.43;0.40;;;26.30;63.50;;;;;;5055683;28;20132;-76
2023/06/13 08:08:36;;;;;;;0.68;0.68;;;26.50;64.50;;;;;;5054355;28;20525;-75
2023/06/13 08:11:02;;;;;;;0.25;0.25;;;26.50;63.40;;;;;;5055613;28;20064;-77
2023/06/13 08:13:27;;;;;;;0.88;0.88;;;26.60;63.00;;;;;;5055559;28;20068;-77
2023/06/13 08:15:53;;;;;;;0.25;0.25;;;26.30;61.90;;;;;;5053234;28;20037;-78
2023/06/13 08:18:19;;;;;;;0.82;0.75;;;26.50;63.40;;;;;;5055082;28;20021;-78
2023/06/13 08:20:47;;;;;;;1.17;0.82;;;26.60;63.10;;;;;;5055622;28;20033;-77
2023/06/13 08:23:14;;;;;;;0.55;0.55;;;26.60;62.60;;;;;;5071663;28;20029;-78
2023/06/13 08:25:41;;;;;;;3.28;2.25;;;27.00;63.50;;;;;;5067069;28;20017;-77
2023/06/13 08:28:07;;;;;;;1.42;1.33;;;27.00;62.40;;;;;;5055944;28;20033;-77
2023/06/13 08:30:33;;;;;;;0.20;0.20;;;27.20;61.00;;;;;;5074121;28;20013;-78
2023/06/13 08:33:01;;;;;;;6.93;1.08;;;27.30;61.50;;;;;;5075259;28;20111;-78
2023/06/13 08:35:28;;;;;;;0.52;0.45;;;27.30;60.90;;;;;;5057470;28;20388;-77
2023/06/13 08:37:54;;;;;;;0.20;0.20;;;27.50;60.30;;;;;;5075364;28;20036;-78
2023/06/13 08:40:21;;;;;;;0.47;0.47;;;27.50;60.30;;;;;;5074179;28;20081;-78
2023/06/13 08:42:47;;;;;;;0.35;0.35;;;27.20;60.10;;;;;;5074884;28;20036;-77
2023/06/13 08:45:13;;;;;;;1.98;1.52;;;27.40;60.60;;;;;;5074955;28;20056;-77
2023/06/13 08:47:46;;;;;;;2.83;0.43;;;27.60;60.10;;;;;;5074893;28;20095;-78
2023/06/13 08:50:13;;;;;;;1.10;0.52;;;27.90;60.60;;;;;;5073731;28;20458;-77
2023/06/13 08:52:41;;;;;;;0.20;0.20;;;27.70;59.90;;;;;;5075027;28;20028;-77
2023/06/13 08:55:11;;;;;;;0.68;0.68;;;27.70;59.80;;;;;;5075158;28;20029;-78
2023/06/13 08:57:41;;;;;;;0.20;0.20;;;27.50;59.60;;;;;;5073365;28;20028;-78
2023/06/13 09:00:12;;;;;;;6.18;2.50;;;27.30;60.20;;;;;;5074817;28;20029;-77
2023/06/13 09:02:45;;;;;;;1.13;1.05;;;27.40;60.60;;;;;;5074538;28;20024;-77
2023/06/13 09:05:13;;;;;;;2.22;1.27;;;27.80;61.00;;;;;;5074847;28;20468;-77
2023/06/13 09:07:40;;;;;;;0.25;0.25;;;27.90;60.00;;;;;;5074546;28;20487;-77
2023/06/13 09:10:10;;;;;;;0.22;0.22;;;28.00;60.00;;;;;;5074999;28;20065;-78
2023/06/13 09:12:38;;;;;;;0.22;0.22;;;28.20;60.90;;;;;;5074488;28;20162;-78
2023/06/13 09:15:04;;;;;;;0.98;0.98;;;28.40;60.50;;;;;;5074717;28;20024;-77
2023/06/13 09:17:30;;;;;;;3.17;2.60;;;28.50;59.80;;;;;;5073255;28;20461;-77
2023/06/13 09:19:56;;;;;;;0.30;0.30;;;28.70;59.70;;;;;;5074522;28;20043;-77
2023/06/13 09:22:23;;;;;;;0.65;0.65;;;28.70;58.40;;;;;;5057673;28;20029;-77
2023/06/13 09:24:50;;;;;;;11.48;3.38;;;28.80;59.20;;;;;;5059440;28;20390;-77
2023/06/13 09:27:16;;;;;;;0.50;0.50;;;28.70;59.10;;;;;;5057090;28;20033;-77
2023/06/13 09:29:42;;;;;;;0.30;0.30;;;28.90;58.80;;;;;;5062856;28;20021;-77
2023/06/13 09:32:10;;;;;;;0.30;0.30;;;28.80;58.60;;;;;;5056215;28;20055;-78
2023/06/13 09:34:38;;;;;;;3.85;1.75;;;29.00;58.10;;;;;;5066190;28;20017;-77
2023/06/13 09:37:07;;;;;;;0.20;0.20;;;28.90;59.00;;;;;;5072791;28;20024;-77
2023/06/13 09:39:32;;;;;;;1.10;1.00;;;29.10;59.20;;;;;;5074159;28;20021;-78
2023/06/13 09:42:01;;;;;;;0.52;0.52;;;29.20;58.60;;;;;;5073357;28;20032;-77
2023/06/13 09:44:32;;;;;;;0.10;0.10;;;29.20;56.80;;;;;;5073808;28;20029;-77
2023/06/13 09:46:58;;;;;;;0.20;0.20;;;29.20;57.50;;;;;;5073741;28;20443;-77
2023/06/13 09:49:30;;;;;;;0.80;0.80;;;29.50;57.20;;;;;;5074151;28;20058;-77
2023/06/13 09:51:59;;;;;;;0.35;0.35;;;29.30;56.40;;;;;;5072605;28;20546;-77
2023/06/13 09:54:29;;;;;;;6.45;1.27;;;29.40;56.00;;;;;;5061819;28;20021;-77
2023/06/13 09:56:56;;;;;;;0.20;0.20;;;29.60;57.50;;;;;;5067622;28;20489;-76
2023/06/13 09:59:22;;;;;;;0.35;0.35;;;29.90;57.90;;;;;;5073897;28;20040;-76
2023/06/13 10:01:47;;;;;;;0.10;0.10;;;30.20;57.80;;;;;;5073742;28;20440;-77
2023/06/13 10:04:14;;;;;;;1.73;1.08;;;30.10;57.40;;;;;;5073501;28;20020;-77
2023/06/13 10:06:40;;;;;;;0.22;0.22;;;30.10;57.40;;;;;;5072399;28;20131;-76
2023/06/13 10:09:06;;;;;;;0.57;0.57;;;30.10;57.40;;;;;;5073001;28;20036;-77
2023/06/13 10:11:34;;;;;;;1.15;0.75;;;30.10;56.70;;;;;;5071999;28;20023;-76
2023/06/13 10:14:07;;;;;;;0.30;0.30;;;29.80;56.50;;;;;;5073240;28;20035;-77
2023/06/13 10:16:40;;;;;;;0.13;0.13;;;30.00;56.70;;;;;;5073343;28;20025;-77
2023/06/13 10:19:08;;;;;;;4.85;0.82;;;30.20;57.50;;;;;;5073052;28;20029;-77
2023/06/13 10:21:36;;;;;;;1.60;1.40;;;30.60;56.60;;;;;;5073583;28;20024;-77
2023/06/13 10:24:02;;;;;;;8.30;2.50;;;30.60;56.20;;;;;;5073217;28;20099;-77
2023/06/13 10:26:39;;;;;;;3.30;1.08;;;30.60;56.40;;;;;;5072544;28;20048;-76
2023/06/13 10:29:32;;;;;;;1.00;0.90;;;30.30;56.20;;;;;;5073307;28;20034;-76
2023/06/13 10:32:17;;;;;;;1.17;0.73;;;31.00;55.60;;;;;;5072762;28;20472;-76
2023/06/13 10:35:00;;;;;;;0.60;0.60;;;30.70;54.90;;;;;;5058728;28;20369;-76
2023/06/13 10:38:05;;;;;;;1.25;1.15;;;31.00;53.50;;;;;;5058488;28;20029;-76
2023/06/13 10:41:02;;;;;;;3.75;0.60;;;31.00;53.10;;;;;;5069968;28;20366;-77
2023/06/13 10:43:42;;;;;;;1.02;0.85;;;31.00;51.70;;;;;;5072766;28;20097;-78
2023/06/13 10:46:08;;;;;;;0.75;0.75;;;31.20;53.20;;;;;;5072654;28;20042;-77
2023/06/13 10:48:37;;;;;;;0.10;0.10;;;31.30;53.20;;;;;;5071476;28;20051;-76
2023/06/13 10:51:02;;;;;;;0.10;0.10;;;31.40;52.50;;;;;;5072967;28;20033;-76
2023/06/13 10:53:31;;;;;;;0.17;0.17;;;31.30;53.40;;;;;;5072817;28;20473;-76
2023/06/13 10:56:01;;;;;;;0.20;0.20;;;31.40;52.10;;;;;;5072127;28;20024;-76
2023/06/13 10:58:28;;;;;;;0.40;0.28;;;31.40;54.10;;;;;;5072638;28;20032;-77
2023/06/13 11:00:54;;;;;;;0.00;0.00;;;31.60;53.50;;;;;;5058386;28;20090;-77
2023/06/13 11:03:20;;;;;;;1.33;0.85;;;31.80;53.20;;;;;;5072642;28;20060;-77
2023/06/13 11:05:45;;;;;;;0.20;0.20;;;31.80;53.30;;;;;;5072526;28;20447;-76
2023/06/13 11:08:29;;;;;;;0.20;0.20;;;32.40;53.50;;;;;;5072361;28;20523;-77
2023/06/13 11:10:56;;;;;;;1.98;0.52;;;32.10;53.20;;;;;;5072247;28;20022;-76
2023/06/13 11:13:24;;;;;;;4.35;3.92;;;32.30;53.70;;;;;;5072497;28;20032;-76
2023/06/13 11:15:54;;;;;;;0.00;0.00;;;32.00;52.90;;;;;;5072612;28;20438;-76
2023/06/13 11:18:20;;;;;;;0.82;0.82;;;32.40;52.70;;;;;;5071251;28;20111;-77
2023/06/13 11:20:56;;;;;;;0.00;0.00;;;32.40;52.30;;;;;;5071881;28;20021;-77
2023/06/13 11:23:24;;;;;;;0.08;0.08;;;32.90;52.20;;;;;;5067336;28;20024;-77
2023/06/13 11:25:50;;;;;;;0.40;0.40;;;32.90;51.90;;;;;;5072095;28;20060;-78
2023/06/13 11:28:18;;;;;;;0.30;0.30;;;33.10;52.60;;;;;;5072389;28;20558;-76
2023/06/13 11:30:47;;;;;;;0.40;0.40;;;33.10;52.10;;;;;;5071092;28;20036;-77
2023/06/13 11:33:14;;;;;;;0.20;0.20;;;33.40;52.20;;;;;;5072444;28;20043;-77
2023/06/13 11:35:48;;;;;;;0.63;0.30;;;32.90;52.20;;;;;;5072351;28;20033;-77
2023/06/13 11:38:19;;;;;;;0.40;0.40;;;33.10;52.30;;;;;;5072163;28;20036;-77
2023/06/13 11:40:51;;;;;;;0.20;0.20;;;33.20;52.50;;;;;;5072727;28;20074;-76
2023/06/13 11:43:17;;;;;;;0.32;0.25;;;32.90;53.30;;;;;;5072270;28;20040;-76
2023/06/13 11:45:45;;;;;;;0.45;0.45;;;32.60;53.40;;;;;;5072180;28;20021;-76
2023/06/13 11:48:17;;;;;;;2.53;1.50;;;32.70;54.10;;;;;;5072015;28;20120;-77
2023/06/13 11:50:44;;;;;;;0.15;0.15;;;33.00;53.90;;;;;;5072290;28;20033;-77
2023/06/13 11:53:11;;;;;;;0.85;0.85;;;33.30;53.90;;;;;;5072104;28;20044;-77
2023/06/13 11:55:36;;;;;;;0.50;0.50;;;33.30;54.20;;;;;;5072157;28;20094;-77
2023/06/13 11:58:03;;;;;;;0.20;0.20;;;33.60;54.30;;;;;;5071709;28;20029;-77
2023/06/13 12:00:53;;;;;;;0.50;0.50;;;34.10;52.70;;;;;;5071968;28;20358;-77
2023/06/13 12:03:23;;;;;;;0.10;0.10;;;33.40;53.00;;;;;;5050738;28;20029;-77
2023/06/13 12:05:56;;;;;;;0.13;0.13;;;33.70;53.30;;;;;;5051812;28;20115;-77
2023/06/13 12:08:22;;;;;;;0.63;0.35;;;33.60;53.50;;;;;;5071539;28;20041;-78
2023/06/13 12:10:48;;;;;;;0.28;0.28;;;34.10;53.10;;;;;;5061929;28;20021;-77
2023/06/13 12:13:17;;;;;;;1.50;0.65;;;33.50;52.80;;;;;;5071858;28;20048;-77
2023/06/13 12:15:44;;;;;;;0.77;0.77;;;33.40;52.20;;;;;;5070402;28;20123;-77
2023/06/13 12:18:10;;;;;;;0.45;0.40;;;33.30;52.90;;;;;;5072081;28;20037;-76
2023/06/13 12:20:53;;;;;;;1.02;0.77;;;33.50;52.80;;;;;;5071973;28;20020;-76
2023/06/13 12:23:20;;;;;;;0.17;0.17;;;33.30;52.00;;;;;;5065594;28;20392;-77
2023/06/13 12:25:46;;;;;;;0.10;0.10;;;33.50;52.60;;;;;;5072013;28;20396;-77
2023/06/13 12:28:17;;;;;;;0.00;0.00;;;33.50;51.40;;;;;;5071764;28;20105;-78
2023/06/13 12:30:45;;;;;;;2.17;1.98;;;34.10;52.30;;;;;;5071965;28;20021;-78
2023/06/13 12:33:15;;;;;;;0.00;0.00;;;34.10;52.00;;;;;;5074054;28;20028;-77
2023/06/13 12:35:51;;;;;;;1.38;1.13;;;33.00;52.20;;;;;;5075608;28;20139;-77
2023/06/13 12:38:19;;;;;;;0.47;0.47;;;34.00;53.90;;;;;;5056909;28;20021;-77
2023/06/13 12:40:51;;;;;;;0.43;0.43;;;34.40;52.40;;;;;;5075290;28;20021;-77
2023/06/13 12:43:22;;;;;;;0.10;0.10;;;33.80;52.30;;;;;;5073771;28;20381;-76
2023/06/13 12:45:47;;;;;;;0.17;0.17;;;33.60;52.50;;;;;;5075140;28;20086;-77
2023/06/13 12:48:20;;;;;;;0.88;0.45;;;34.20;52.60;;;;;;5075007;28;20028;-77
2023/06/13 12:50:47;;;;;;;0.63;0.63;;;34.50;53.60;;;;;;5074792;28;20052;-77
2023/06/13 12:53:17;;;;;;;0.10;0.10;;;34.40;51.90;;;;;;5075113;28;20028;-76